Michalis Ioannidis

Olheiro - PAOK
20 Fev 2028
Domingo
Processo

Personalidade

Adaptabilidade (17) Ambição (4) Controvérsia (20) Lealdade (4) Pressão (8) Profissionalismo (8) Espírito Esportivo (10) Temperamento (5)

Perfil

Estilo de Treinamento Democrático
Licença Continental C
Determinação 6
Gestão de Pessoas 7
Motivação 9
Disciplina 7
Satisfação no Trabalho
87%
Fadiga
0%
Função Olheiro
Salário 17.9K p/s
Contrato 14.03.2029

Desempenho

Comportamento Bom
Eficácia do Treinamento
54%
Desenvolvimento do Jogador
65%
Prevenção de Lesões
30%
Implementação Tática
40%

Eventos Recentes

Participou de uma reunião de recrutamento agora
Recomendou um alvo de transferência agora
Recomendou um alvo de transferência agora
Participou de uma reunião de recrutamento 7d atrás
Recomendou um alvo de transferência 7d atrás
Recomendou um alvo de transferência 7d atrás
Participou de uma reunião de recrutamento 7d atrás
Observou uma partida 7d atrás

Monitorando agora

124
Jogador Clube Status Habilidade Confiança Observado Última observação Último voto
Migouel Alfarela Kifisia Ativo 123 / 123 42% 1 / 1m 29.09.2027 -
Konstantinos Apostolakis Kifisia Ativo 111 / 111 42% 1 / 1m 29.09.2027 -
Zane Albarus Cambridge United Ativo 103 / 106 40% 1 26.07.2027 -
Majid Rezaeian Rah Ahan Ativo 107 / 92 40% 1 26.07.2027 -
Martim Cunha Porto Ativo 98 / 128 40% 1 26.07.2027 -
Francesco D'Alterio Ternana Ativo 113 / 120 40% 2 19.07.2027 -
Tobias Slotsager Casertana Ativo 110 / 135 40% 1 13.07.2027 -
Christ Inao Oulaï Fiorentina Ativo 138 / 153 40% 1 13.07.2027 -
Juan Giménez Celta Ativo 109 / 125 40% 1 13.07.2027 -
Jofre Torrents Ajax Ativo 127 / 147 40% 2 05.07.2027 -
Kazunari Kita Real Sociedad Ativo 94 / 105 40% 2 05.07.2027 -
David Valencia Alianza Petrolera Ativo 122 / 139 40% 1 05.07.2027 -
Daniel Vernattus Metalist Ativo 93 / 100 40% 2 24.06.2027 -
Mbekezeli Mbokazi Chicago Fire Ativo 115 / 124 40% 1 24.06.2027 -
Ezra Mayers West Ham United Ativo 123 / 116 40% 1 24.06.2027 -
Amadou Niang Al Ain Ativo 114 / 130 40% 1 22.06.2027 -
Samuel Lucero Defensa y Justicia Ativo 121 / 118 40% 1 21.06.2027 -
Valentin Atangana Al-Ahli Ativo 126 / 148 40% 1 21.06.2027 -
Eddy Kouadio Crotone Ativo 100 / 110 40% 1 14.06.2027 -
Julián Bartolo Asteras Ativo 113 / 119 72% 1 02.06.2027 Aprovar
Mduduzi Shabalala Kaizer Chiefs Ativo 122 / 102 40% 1 30.05.2027 -
Strahinja Manojlović Radnicki Nis Ativo 112 / 100 40% 1 29.05.2027 -
Cesare Galeotti Trapani Ativo 107 / 101 40% 1 29.05.2027 -
Oleksandr Saputin Poltava Ativo 118 / 132 40% 1 29.05.2027 -
Shea Charles Southampton Ativo 143 / 145 40% 8 27.05.2027 -
Callum Doyle Wrexham Ativo 141 / 145 40% 2 27.05.2027 -
Charlie Savage Reading Ativo 109 / 98 40% 1 27.05.2027 -
Andrei Coubiş Lincoln City Ativo 113 / 116 40% 2 26.05.2027 -
Femi Seriki Sheffield United Ativo 122 / 127 40% 4 26.05.2027 -
Milan van Ewijk Mansfield Town Ativo 123 / 127 40% 5 26.05.2027 -
Pelle Mattsson Norwich City Ativo 122 / 116 40% 3 26.05.2027 -
Matteo Francesconi Cesena Ativo 116 / 135 40% 1 26.05.2027 -
Harry Clarke Preston Ativo 119 / 141 40% 3 24.05.2027 -
Álvaro Carrillo APOEL Ativo 125 / 121 40% 4 23.05.2027 -
Lucas Da Cunha Como Ativo 136 / 128 40% 2 23.05.2027 -
Brad Hills Stockport County Ativo 121 / 118 40% 1 22.05.2027 -
Martin Velichkov Lokomotiv Sofia Ativo 102 / 101 40% 2 21.05.2027 -
Williams Manyama SuperSport United Ativo 115 / 121 40% 2 20.05.2027 -
Florentino Luís Ipswich Town Ativo 138 / 153 40% 2 19.05.2027 -
Ethan Galbraith Swansea City Ativo 135 / 135 40% 2 19.05.2027 -
Brian De Keersmaecker Oxford United Ativo 118 / 130 40% 1 19.05.2027 -
Oumar Solet Udinese Ativo 152 / 136 40% 2 18.05.2027 Mais informações
Radek Vítek Middlesbrough Ativo 136 / 137 40% 2 18.05.2027 -
Derry Murkin Derby County Ativo 135 / 142 40% 1 18.05.2027 -
Alessandro Sersanti Modena Ativo 127 / 124 40% 1 18.05.2027 -
Lewis Bate Stockport County Ativo 113 / 118 40% 4 16.05.2027 -
Nicolas Madsen Queens Park Rangers Ativo 139 / 141 40% 2 16.05.2027 -
James Trafford Leeds United Ativo 155 / 158 40% 4 15.05.2027 -
Welington Southampton Ativo 129 / 124 40% 1 15.05.2027 -
Bosun Lawal Stoke City Ativo 129 / 123 40% 4 14.05.2027 -
Mamadou Sangaré Brentford Ativo 137 / 146 40% 3 14.05.2027 -
Kellen Fisher Norwich City Ativo 117 / 132 40% 3 14.05.2027 -
Bobby Thomas Coventry City Ativo 142 / 139 40% 3 14.05.2027 -
Bradley Mabunda SuperSport United Ativo 108 / 124 40% 3 10.05.2027 -
Tomáš Frühwald Bohemians 1905 Ativo 111 / 120 40% 3 10.05.2027 -
Jacques Ekomié Wrexham Ativo 140 / 121 40% 2 08.05.2027 -
Darlin Yongwa Norwich City Ativo 129 / 122 40% 3 08.05.2027 -
Ronnie Edwards Queens Park Rangers Ativo 136 / 146 40% 2 06.05.2027 -
Toby Collyer West Bromwich Albion Ativo 127 / 134 40% 2 06.05.2027 -
Mads Hermansen West Ham United Ativo 139 / 153 40% 1 04.05.2027 -
George Wickens Lincoln City Ativo 124 / 108 40% 2 03.05.2027 -
Will Dennis Milton Keynes Dons Ativo 99 / 104 40% 2 02.05.2027 -
Kristoffer Lund Birmingham Ativo 138 / 143 40% 5 01.05.2027 -
Lévi Ntumba Slavia Sofia Ativo 113 / 107 40% 1 29.04.2027 -
Brodie Spencer Oxford United Ativo 119 / 136 40% 1 28.04.2027 -
Alfie Devine Preston Ativo 113 / 127 40% 1 28.04.2027 -
Nathan Bishop AFC Wimbledon Ativo 103 / 101 40% 1 27.04.2027 -
Giorgio Scalvini Atalanta Ativo 151 / 165 40% 1 26.04.2027 -
Jordan Beyer Burnley Ativo 144 / 132 40% 1 26.04.2027 -
Edoardo Motta Lazio Ativo 116 / 136 40% 1 23.04.2027 -
Kyrylo Fesiun Shakhtar Ativo 124 / 134 40% 1 23.04.2027 -
Marlon Gomes Shakhtar Ativo 140 / 142 40% 2 22.04.2027 -
Nicolò Bertola Udinese Ativo 140 / 142 40% 1 22.04.2027 -
Othmane Maamma Watford Ativo 132 / 112 40% 1 20.04.2027 -
George Earthy Reading Ativo 108 / 131 40% 1 20.04.2027 -
Tyreece Campbell Charlton Athletic Ativo 107 / 119 40% 1 20.04.2027 -
Brayann Pereira West Bromwich Albion Ativo 122 / 106 40% 1 20.04.2027 -
Edoardo Bove Watford Ativo 133 / 149 40% 1 20.04.2027 -
Fahad Hassan Al Shabab Ativo 127 / 137 40% 1 17.04.2027 -
Valerio Boffelli Cavese Ativo 103 / 110 40% 1 17.04.2027 -
Lorenzo Cordaro Pergolettese Ativo 101 / 87 40% 1 17.04.2027 -
Elia Boseggia Novara Ativo 103 / 97 40% 3 16.04.2027 -
Jay McGrath Doncaster Rovers Ativo 111 / 92 40% 1 12.04.2027 -
Murphy Cooper Plymouth Argyle Ativo 118 / 123 40% 2 11.04.2027 -
James Furlong Walsall Ativo 100 / 96 40% 1 11.04.2027 -
Daniil Frolkin Fakel Ativo 110 / 111 40% 2 09.04.2027 -
Emanuel Aiwu Apollon Ativo 118 / 139 40% 2 09.04.2027 -
Maduka Okoye Udinese Ativo 147 / 133 40% 2 09.04.2027 -
Oliver Skipp Leicester City Ativo 131 / 128 40% 2 06.04.2027 -
Will Fish Cardiff City Ativo 122 / 110 40% 1 06.04.2027 -
Jan Koutný Sigma Olomouc Ativo 106 / 107 40% 1 03.04.2027 -
Zach Hemming Chesterfield Ativo 101 / 124 40% 2 02.04.2027 -
Mateusz Kochalski Dynamo Kyiv Ativo 141 / 140 40% 1 02.04.2027 -
Di'Shon Bernard Sheffield Wednesday Ativo 124 / 111 40% 1 02.04.2027 -
Josh Tymon Swansea City Ativo 114 / 106 40% 1 30.03.2027 -
Heorhii Yermakov Metalist Ativo 111 / 112 40% 1 29.03.2027 -
Cédric Don Maccabi Haifa Ativo 131 / 129 40% 1 29.03.2027 -
Dennis Cirkin Queens Park Rangers Ativo 130 / 118 40% 3 27.03.2027 -
Matteo Lovato Padova Ativo 120 / 137 40% 1 27.03.2027 -
Jordan Zemura Udinese Ativo 145 / 142 40% 1 27.03.2027 -
Fedor Lapoukhov CSKA Sofia Ativo 120 / 132 40% 1 23.03.2027 -
Siyanda Ndlovu Bloemfontein Celtic Ativo 125 / 110 40% 3 22.03.2027 -
Habib Diarra Sunderland Ativo 149 / 127 40% 2 21.03.2027 -
Azzedine Ounahi Panathinaikos Ativo 134 / 135 40% 1 21.03.2027 -
Samuele Angori Pisa Ativo 125 / 151 40% 2 20.03.2027 -
Christos Mouzakitis Hull City Ativo 120 / 141 40% 1 19.03.2027 -
Walid Juma Al Shaab Ativo 115 / 123 40% 1 19.03.2027 -
Denys Ihnatenko Livyi Bereh Ativo 115 / 113 40% 1 19.03.2027 -
Szymon Weirauch Lechia Ativo 110 / 99 40% 1 19.03.2027 -
Nadir Zortea Bologna Ativo 131 / 153 40% 1 18.03.2027 -
Josh Edwards Charlton Athletic Ativo 112 / 115 40% 1 16.03.2027 -
Justin Devenny Stoke City Ativo 114 / 138 40% 1 15.03.2027 -
Body Samir ENPPI Ativo 103 / 99 40% 1 12.03.2027 -
Nazar Voloshyn Dynamo Kyiv Ativo 123 / 119 40% 1 09.03.2027 -
Fer López Wolverhampton Ativo 139 / 127 40% 1 09.03.2027 -
Teden Mengi Luton Town Ativo 119 / 124 40% 1 08.03.2027 -
Mandla Erasmus SuperSport United Ativo 113 / 115 40% 2 07.03.2027 -
Ryan Trevitt Cambridge United Ativo 121 / 133 40% 1 06.03.2027 -
Juan Mosquera Sheffield Wednesday Ativo 129 / 136 40% 1 02.03.2027 -
Nicolò Savona Nottingham Forest Ativo 135 / 149 40% 1 01.03.2027 -
Max Bird Birmingham Ativo 133 / 123 40% 1 31.12.2026 -
Christian Krasnodar Ativo 139 / 135 40% 1 31.12.2026 -
Dara O'Shea Ipswich Town Ativo 135 / 131 40% 1 31.12.2026 -
Filipe Relvas AEK Ativo 123 / 113 69% 1 03.08.2026 Aprovar